PWSweather.com
Personal Weather Stations
Station Observations
KCTHAMDEN
Dunbar Hill, Hamden, CT 06514

Dunbar HillHamden, CT 06514

Lat: 41.365437, Lon: -72.956532

Elevation: 200

Station Type: Davis Vantage Pro2+

Latest ConditionsUpdated 8:00:02 PM EDT Tuesday, Sep 19, 2017
Currently Today's Max Today's Min Today's Average
Temperature 68.3°F20.2°C 72.7°F22.6°C 66.7°F19.3°C 68.9°F20.5°C
Dew Point 65.9°F18.8°C 67.7°F19.8°C 64.0°F17.8°C 65.8°F18.8°C
Winds 6.5 mph NW10.5 kmh NW 8.0 mph NE12.9 kmh NE - 3.8 mph 6.1 kmh
Wind Gusts 10.0 mph16.1 kmh 17.0 mph27.4 kmh - -
Humidity 92% 94% 80% 90%
Pressure 29.91 in1012.9 mb 30.09 in1019.0 mb 29.90 in1012.5 mb -
Precipitation - 0.18 in4.6 mm - -
Hour Temp Dew Point Humidity Winds Wind Gusts Pressure Precip Precip Rate Daily Precip Total
08:00 PM 68.3°F20.2°C 65.9°F18.8°C 92% 6.5 mph NW10.5 kmh NW 10.0 mph16.1 kmh 29.91 in1012.9 mb - 0.00 in0.0 mm 0.18 in4.6 mm
07:45 PM 68.3°F20.2°C 65.8°F18.8°C 92% 7.5 mph NNW12.1 kmh NNW 14.0 mph22.5 kmh 29.90 in1012.5 mb - 0.00 in0.0 mm 0.18 in4.6 mm
07:30 PM 68.2°F20.1°C 66.1°F18.9°C 93% 5.0 mph N8.0 kmh N 8.0 mph12.9 kmh 29.90 in1012.5 mb - 0.00 in0.0 mm 0.18 in4.6 mm
07:15 PM 68.1°F20.1°C 66.0°F18.9°C 93% 5.4 mph NNE8.7 kmh NNE 10.0 mph16.1 kmh 29.91 in1012.9 mb - 0.00 in0.0 mm 0.18 in4.6 mm
07:00 PM 68.1°F20.1°C 66.3°F19.1°C 94% 3.7 mph NNE6.0 kmh NNE 6.0 mph9.7 kmh 29.91 in1012.9 mb - 0.00 in0.0 mm 0.18 in4.6 mm
06:45 PM 68.1°F20.1°C 66.3°F19.1°C 94% 4.9 mph NNW7.9 kmh NNW 10.0 mph16.1 kmh 29.91 in1012.9 mb - 0.00 in0.0 mm 0.18 in4.6 mm
06:30 PM 68.1°F20.1°C 66.3°F19.1°C 94% 2.5 mph W4.0 kmh W 4.0 mph6.4 kmh 29.91 in1012.9 mb - 0.00 in0.0 mm 0.18 in4.6 mm
06:15 PM 68.3°F20.2°C 66.2°F19.0°C 93% 4.1 mph NNE6.6 kmh NNE 12.0 mph19.3 kmh 29.91 in1012.9 mb - 0.00 in0.0 mm 0.18 in4.6 mm
06:00 PM 68.6°F20.3°C 66.5°F19.2°C 93% 2.6 mph N4.2 kmh N 4.0 mph6.4 kmh 29.91 in1012.9 mb - 0.05 in1.3 mm 0.18 in4.6 mm
05:45 PM 69.0°F20.6°C 66.3°F19.1°C 91% 5.4 mph NW8.7 kmh NW 16.0 mph25.7 kmh 29.92 in1013.2 mb - 0.01 in0.3 mm 0.14 in3.6 mm
05:30 PM 69.0°F20.6°C 66.3°F19.1°C 91% 3.5 mph WNW5.6 kmh WNW 12.0 mph19.3 kmh 29.92 in1013.2 mb - 0.00 in0.0 mm 0.13 in3.3 mm
05:15 PM 68.8°F20.4°C 66.4°F19.1°C 92% 3.4 mph NW5.5 kmh NW 7.0 mph11.3 kmh 29.92 in1013.2 mb - 0.00 in0.0 mm 0.13 in3.3 mm
05:00 PM 68.7°F20.4°C 66.6°F19.2°C 93% 5.7 mph 9.2 kmh 9.0 mph14.5 kmh 29.92 in1013.2 mb - 0.00 in0.0 mm 0.13 in3.3 mm
04:45 PM 68.5°F20.3°C 66.4°F19.1°C 93% 6.2 mph W10.0 kmh W 10.0 mph16.1 kmh 29.93 in1013.5 mb - 0.00 in0.0 mm 0.13 in3.3 mm
04:30 PM 68.5°F20.3°C 66.7°F19.3°C 94% 2.7 mph NNE4.3 kmh NNE 8.0 mph12.9 kmh 29.93 in1013.5 mb - 0.00 in0.0 mm 0.13 in3.3 mm
04:15 PM 68.4°F20.2°C 66.6°F19.2°C 94% 4.6 mph ENE7.4 kmh ENE 12.0 mph19.3 kmh 29.93 in1013.5 mb - 0.00 in0.0 mm 0.13 in3.3 mm
04:00 PM 68.5°F20.3°C 66.7°F19.3°C 94% 1.3 mph ENE2.1 kmh ENE 3.0 mph4.8 kmh 29.93 in1013.5 mb - 0.01 in0.3 mm 0.13 in3.3 mm
03:45 PM 68.6°F20.3°C 66.8°F19.3°C 94% 3.7 mph W6.0 kmh W 9.0 mph14.5 kmh 29.93 in1013.5 mb - 0.00 in0.0 mm 0.12 in3.0 mm
03:30 PM 68.8°F20.4°C 66.7°F19.3°C 93% 1.9 mph NNE3.1 kmh NNE 10.0 mph16.1 kmh 29.93 in1013.5 mb - 0.00 in0.0 mm 0.12 in3.0 mm
03:15 PM 69.1°F20.6°C 67.0°F19.4°C 93% 2.1 mph N3.4 kmh N 4.0 mph6.4 kmh 29.94 in1013.9 mb - 0.03 in0.8 mm 0.12 in3.0 mm
03:00 PM 69.6°F20.9°C 67.2°F19.6°C 92% 2.2 mph N3.5 kmh N 6.0 mph9.7 kmh 29.95 in1014.2 mb - 0.03 in0.8 mm 0.09 in2.3 mm
02:45 PM 70.1°F21.2°C 67.0°F19.4°C 90% 0.7 mph N1.1 kmh N 1.0 mph1.6 kmh 29.95 in1014.2 mb - 0.04 in1.0 mm 0.06 in1.5 mm
02:30 PM 70.7°F21.5°C 67.3°F19.6°C 89% 2.1 mph N3.4 kmh N 8.0 mph12.9 kmh 29.96 in1014.6 mb - 0.01 in0.3 mm 0.02 in0.5 mm
02:15 PM 71.0°F21.7°C 67.3°F19.6°C 88% 2.8 mph ENE4.5 kmh ENE 7.0 mph11.3 kmh 29.97 in1014.9 mb - 0.00 in0.0 mm 0.01 in0.3 mm
02:00 PM 71.4°F21.9°C 67.7°F19.8°C 88% 5.5 mph NW8.9 kmh NW 11.0 mph17.7 kmh 29.97 in1014.9 mb - 0.00 in0.0 mm 0.01 in0.3 mm
01:45 PM 71.4°F21.9°C 67.0°F19.4°C 86% 5.5 mph NW8.9 kmh NW 7.0 mph11.3 kmh 29.97 in1014.9 mb - 0.00 in0.0 mm 0.01 in0.3 mm
01:30 PM 71.2°F21.8°C 67.1°F19.5°C 87% 4.4 mph NNE7.1 kmh NNE 7.0 mph11.3 kmh 29.98 in1015.2 mb - 0.00 in0.0 mm 0.01 in0.3 mm
01:15 PM 71.1°F21.7°C 67.0°F19.4°C 87% 2.5 mph N4.0 kmh N 8.0 mph12.9 kmh 29.99 in1015.6 mb - 0.00 in0.0 mm 0.01 in0.3 mm
01:00 PM 71.5°F21.9°C 67.1°F19.5°C 86% 2.8 mph N4.5 kmh N 4.0 mph6.4 kmh 30.00 in1015.9 mb - 0.01 in0.3 mm 0.01 in0.3 mm
12:45 PM 72.1°F22.3°C 66.6°F19.2°C 83% 4.3 mph W6.9 kmh W 10.0 mph16.1 kmh 30.01 in1016.3 mb - 0.00 in0.0 mm 0.00 in0.0 mm
12:30 PM 72.4°F22.4°C 66.2°F19.0°C 81% 3.1 mph E5.0 kmh E 7.0 mph11.3 kmh 30.02 in1016.6 mb - 0.00 in0.0 mm 0.00 in0.0 mm
12:15 PM 72.4°F22.4°C 66.2°F19.0°C 81% 2.8 mph WSW4.5 kmh WSW 3.0 mph4.8 kmh 30.02 in1016.6 mb - 0.00 in0.0 mm 0.00 in0.0 mm
12:00 PM 72.7°F22.6°C 66.2°F19.0°C 80% 6.3 mph WSW10.1 kmh WSW 9.0 mph14.5 kmh 30.03 in1016.9 mb - 0.00 in0.0 mm 0.00 in0.0 mm
11:45 AM 72.6°F22.6°C 66.4°F19.1°C 81% 7.0 mph NE11.3 kmh NE 17.0 mph27.4 kmh 30.03 in1016.9 mb - 0.00 in0.0 mm 0.00 in0.0 mm
11:30 AM 71.9°F22.2°C 66.1°F18.9°C 82% 4.5 mph WNW7.2 kmh WNW 8.0 mph12.9 kmh 30.03 in1016.9 mb - 0.00 in0.0 mm 0.00 in0.0 mm
11:15 AM 72.2°F22.3°C 66.0°F18.9°C 81% 6.6 mph ENE10.6 kmh ENE 12.0 mph19.3 kmh 30.03 in1016.9 mb - 0.00 in0.0 mm 0.00 in0.0 mm
11:00 AM 71.4°F21.9°C 66.3°F19.1°C 84% 4.2 mph NW6.8 kmh NW 6.0 mph9.7 kmh 30.04 in1017.3 mb - 0.00 in0.0 mm 0.00 in0.0 mm
10:45 AM 70.3°F21.3°C 65.5°F18.6°C 85% 5.8 mph ENE9.3 kmh ENE 9.0 mph14.5 kmh 30.04 in1017.3 mb - 0.00 in0.0 mm 0.00 in0.0 mm
10:30 AM 70.0°F21.1°C 65.0°F18.3°C 84% 3.1 mph NE5.0 kmh NE 3.0 mph4.8 kmh 30.05 in1017.6 mb - 0.00 in0.0 mm 0.00 in0.0 mm
10:15 AM 69.8°F21.0°C 65.1°F18.4°C 85% 5.2 mph N8.4 kmh N 12.0 mph19.3 kmh 30.05 in1017.6 mb - 0.00 in0.0 mm 0.00 in0.0 mm
10:00 AM 69.4°F20.8°C 65.0°F18.3°C 86% 4.8 mph NE7.7 kmh NE 8.0 mph12.9 kmh 30.05 in1017.6 mb - 0.00 in0.0 mm 0.00 in0.0 mm
09:45 AM 68.9°F20.5°C 64.9°F18.3°C 87% 8.0 mph NE12.9 kmh NE 13.0 mph20.9 kmh 30.05 in1017.6 mb - 0.00 in0.0 mm 0.00 in0.0 mm
09:30 AM 68.2°F20.1°C 64.8°F18.2°C 89% 6.3 mph W10.1 kmh W 12.0 mph19.3 kmh 30.05 in1017.6 mb - 0.00 in0.0 mm 0.00 in0.0 mm
09:15 AM 67.4°F19.7°C 64.4°F18.0°C 90% 4.9 mph SE7.9 kmh SE 8.0 mph12.9 kmh 30.05 in1017.6 mb - 0.00 in0.0 mm 0.00 in0.0 mm
09:00 AM 67.2°F19.6°C 64.5°F18.1°C 91% 2.2 mph E3.5 kmh E 3.0 mph4.8 kmh 30.05 in1017.6 mb - 0.00 in0.0 mm 0.00 in0.0 mm
08:45 AM 66.9°F19.4°C 64.2°F17.9°C 91% 4.2 mph N6.8 kmh N 7.0 mph11.3 kmh 30.05 in1017.6 mb - 0.00 in0.0 mm 0.00 in0.0 mm
08:30 AM 66.7°F19.3°C 64.0°F17.8°C 91% 3.9 mph W6.3 kmh W 6.0 mph9.7 kmh 30.04 in1017.3 mb - 0.00 in0.0 mm 0.00 in0.0 mm
08:15 AM 66.8°F19.3°C 64.1°F17.8°C 91% 5.7 mph NNE9.2 kmh NNE 13.0 mph20.9 kmh 30.04 in1017.3 mb - 0.00 in0.0 mm 0.00 in0.0 mm
08:00 AM 66.8°F19.3°C 64.1°F17.8°C 91% 1.4 mph WSW2.3 kmh WSW 5.0 mph8.0 kmh 30.04 in1017.3 mb - 0.00 in0.0 mm 0.00 in0.0 mm
07:45 AM 66.9°F19.4°C 64.2°F17.9°C 91% 4.9 mph NE7.9 kmh NE 7.0 mph11.3 kmh 30.04 in1017.3 mb - 0.00 in0.0 mm 0.00 in0.0 mm
07:30 AM 67.0°F19.4°C 64.3°F17.9°C 91% 3.9 mph WNW6.3 kmh WNW 6.0 mph9.7 kmh 30.05 in1017.6 mb - 0.00 in0.0 mm 0.00 in0.0 mm
07:15 AM 67.0°F19.4°C 64.3°F17.9°C 91% 1.1 mph NNE1.8 kmh NNE 2.0 mph3.2 kmh 30.05 in1017.6 mb - 0.00 in0.0 mm 0.00 in0.0 mm
07:00 AM 67.1°F19.5°C 64.4°F18.0°C 91% 2.7 mph NW4.3 kmh NW 5.0 mph8.0 kmh 30.05 in1017.6 mb - 0.00 in0.0 mm 0.00 in0.0 mm
06:45 AM 67.1°F19.5°C 64.4°F18.0°C 91% 2.0 mph ESE3.2 kmh ESE 7.0 mph11.3 kmh 30.05 in1017.6 mb - 0.00 in0.0 mm 0.00 in0.0 mm
06:30 AM 67.2°F19.6°C 64.5°F18.1°C 91% 3.1 mph W5.0 kmh W 4.0 mph6.4 kmh 30.05 in1017.6 mb - 0.00 in0.0 mm 0.00 in0.0 mm
06:15 AM 67.3°F19.6°C 64.6°F18.1°C 91% 2.4 mph N3.9 kmh N 8.0 mph12.9 kmh 30.05 in1017.6 mb - 0.00 in0.0 mm 0.00 in0.0 mm
06:00 AM 67.4°F19.7°C 64.7°F18.2°C 91% 3.0 mph SE4.8 kmh SE 9.0 mph14.5 kmh 30.05 in1017.6 mb - 0.00 in0.0 mm 0.00 in0.0 mm
05:45 AM 67.4°F19.7°C 64.7°F18.2°C 91% 1.9 mph SW3.1 kmh SW 6.0 mph9.7 kmh 30.05 in1017.6 mb - 0.00 in0.0 mm 0.00 in0.0 mm
05:30 AM 67.5°F19.7°C 64.8°F18.2°C 91% 2.9 mph NW4.7 kmh NW 8.0 mph12.9 kmh 30.05 in1017.6 mb - 0.00 in0.0 mm 0.00 in0.0 mm
05:15 AM 67.6°F19.8°C 64.9°F18.3°C 91% 3.6 mph NE5.8 kmh NE 9.0 mph14.5 kmh 30.05 in1017.6 mb - 0.00 in0.0 mm 0.00 in0.0 mm
05:00 AM 67.7°F19.8°C 65.3°F18.5°C 92% 4.3 mph NW6.9 kmh NW 9.0 mph14.5 kmh 30.06 in1017.9 mb - 0.00 in0.0 mm 0.00 in0.0 mm
04:45 AM 67.8°F19.9°C 65.4°F18.6°C 92% 2.4 mph N3.9 kmh N 4.0 mph6.4 kmh 30.05 in1017.6 mb - 0.00 in0.0 mm 0.00 in0.0 mm
04:30 AM 67.8°F19.9°C 65.4°F18.6°C 92% 2.2 mph NNE3.5 kmh NNE 2.0 mph3.2 kmh 30.06 in1017.9 mb - 0.00 in0.0 mm 0.00 in0.0 mm
04:15 AM 67.9°F19.9°C 65.5°F18.6°C 92% 4.1 mph NE6.6 kmh NE 5.0 mph8.0 kmh 30.05 in1017.6 mb - 0.00 in0.0 mm 0.00 in0.0 mm
04:00 AM 67.9°F19.9°C 65.5°F18.6°C 92% 5.0 mph N8.0 kmh N 7.0 mph11.3 kmh 30.06 in1017.9 mb - 0.00 in0.0 mm 0.00 in0.0 mm
03:45 AM 67.9°F19.9°C 65.2°F18.4°C 91% 2.7 mph NW4.3 kmh NW 8.0 mph12.9 kmh 30.06 in1017.9 mb - 0.00 in0.0 mm 0.00 in0.0 mm
03:30 AM 68.0°F20.0°C 65.3°F18.5°C 91% 3.0 mph NW4.8 kmh NW 5.0 mph8.0 kmh 30.06 in1017.9 mb - 0.00 in0.0 mm 0.00 in0.0 mm
03:15 AM 68.1°F20.1°C 65.4°F18.6°C 91% 2.1 mph NW3.4 kmh NW 4.0 mph6.4 kmh 30.06 in1017.9 mb - 0.00 in0.0 mm 0.00 in0.0 mm
03:00 AM 68.1°F20.1°C 65.4°F18.6°C 91% 3.7 mph ENE6.0 kmh ENE 6.0 mph9.7 kmh 30.06 in1017.9 mb - 0.00 in0.0 mm 0.00 in0.0 mm
02:45 AM 68.2°F20.1°C 65.5°F18.6°C 91% 2.9 mph NNE4.7 kmh NNE 10.0 mph16.1 kmh 30.07 in1018.3 mb - 0.00 in0.0 mm 0.00 in0.0 mm
02:30 AM 68.3°F20.2°C 65.6°F18.7°C 91% 2.2 mph N3.5 kmh N 4.0 mph6.4 kmh 30.07 in1018.3 mb - 0.00 in0.0 mm 0.00 in0.0 mm
02:15 AM 68.4°F20.2°C 65.7°F18.7°C 91% 3.1 mph NE5.0 kmh NE 3.0 mph4.8 kmh 30.08 in1018.6 mb - 0.00 in0.0 mm 0.00 in0.0 mm
02:00 AM 68.5°F20.3°C 65.8°F18.8°C 91% 3.2 mph N5.1 kmh N 8.0 mph12.9 kmh 30.08 in1018.6 mb - 0.00 in0.0 mm 0.00 in0.0 mm
01:45 AM 68.6°F20.3°C 65.9°F18.8°C 91% 3.9 mph NW6.3 kmh NW 9.0 mph14.5 kmh 30.08 in1018.6 mb - 0.00 in0.0 mm 0.00 in0.0 mm
01:30 AM 68.6°F20.3°C 65.9°F18.8°C 91% 1.6 mph ENE2.6 kmh ENE 4.0 mph6.4 kmh 30.08 in1018.6 mb - 0.00 in0.0 mm 0.00 in0.0 mm
01:15 AM 68.7°F20.4°C 65.9°F18.8°C 91% 2.5 mph WSW4.0 kmh WSW 2.0 mph3.2 kmh 30.09 in1019.0 mb - 0.00 in0.0 mm 0.00 in0.0 mm
01:00 AM 68.8°F20.4°C 66.1°F18.9°C 91% 1.5 mph W2.4 kmh W 2.0 mph3.2 kmh 30.09 in1019.0 mb - 0.00 in0.0 mm 0.00 in0.0 mm
12:45 AM 68.8°F20.4°C 65.8°F18.8°C 90% 3.7 mph NE6.0 kmh NE 5.0 mph8.0 kmh 30.09 in1019.0 mb - 0.00 in0.0 mm 0.00 in0.0 mm
12:30 AM 68.9°F20.5°C 65.8°F18.8°C 90% 3.6 mph NW5.8 kmh NW 4.0 mph6.4 kmh 30.09 in1019.0 mb - 0.00 in0.0 mm 0.00 in0.0 mm
12:15 AM 68.9°F20.5°C 65.9°F18.8°C 90% 2.7 mph WNW4.3 kmh WNW 4.0 mph6.4 kmh 30.09 in1019.0 mb - 0.00 in0.0 mm 0.00 in0.0 mm
12:00 AM 69.0°F20.6°C 65.9°F18.8°C 90% 7.5 mph NNE12.1 kmh NNE 8.0 mph12.9 kmh 30.09 in1019.0 mb - 0.00 in0.0 mm 0.00 in0.0 mm